sensor_id;sensor_type;location;lat;lon;timestamp;P1;durP1;ratioP1;P2;durP2;ratioP2
31368;SDS011;18004;48.416;10.066;2023-03-13T00:01:00;4.10;;;2.22;;
31368;SDS011;18004;48.416;10.066;2023-03-13T00:03:28;4.47;;;2.05;;
31368;SDS011;18004;48.416;10.066;2023-03-13T00:05:54;2.92;;;2.10;;
31368;SDS011;18004;48.416;10.066;2023-03-13T00:08:21;5.50;;;2.50;;
31368;SDS011;18004;48.416;10.066;2023-03-13T00:10:46;3.70;;;2.33;;
31368;SDS011;18004;48.416;10.066;2023-03-13T00:13:12;3.38;;;1.90;;
31368;SDS011;18004;48.416;10.066;2023-03-13T00:15:38;3.10;;;2.35;;
31368;SDS011;18004;48.416;10.066;2023-03-13T00:18:04;3.85;;;2.45;;
31368;SDS011;18004;48.416;10.066;2023-03-13T00:20:30;4.45;;;2.53;;
31368;SDS011;18004;48.416;10.066;2023-03-13T00:22:55;5.30;;;2.35;;
31368;SDS011;18004;48.416;10.066;2023-03-13T00:25:21;4.25;;;2.28;;
31368;SDS011;18004;48.416;10.066;2023-03-13T00:27:47;4.18;;;2.35;;
31368;SDS011;18004;48.416;10.066;2023-03-13T00:30:13;4.60;;;2.10;;
31368;SDS011;18004;48.416;10.066;2023-03-13T00:32:43;5.05;;;2.42;;
31368;SDS011;18004;48.416;10.066;2023-03-13T00:35:13;3.92;;;2.22;;
31368;SDS011;18004;48.416;10.066;2023-03-13T00:37:40;8.40;;;2.17;;
31368;SDS011;18004;48.416;10.066;2023-03-13T00:40:06;6.05;;;2.08;;
31368;SDS011;18004;48.416;10.066;2023-03-13T00:42:33;7.40;;;2.13;;
31368;SDS011;18004;48.416;10.066;2023-03-13T00:44:59;3.08;;;1.50;;
31368;SDS011;18004;48.416;10.066;2023-03-13T00:47:24;2.80;;;1.80;;
31368;SDS011;18004;48.416;10.066;2023-03-13T00:49:50;5.78;;;1.98;;
31368;SDS011;18004;48.416;10.066;2023-03-13T00:52:16;4.80;;;1.25;;
31368;SDS011;18004;48.416;10.066;2023-03-13T00:54:42;8.05;;;3.30;;
31368;SDS011;18004;48.416;10.066;2023-03-13T00:57:08;4.50;;;3.13;;
31368;SDS011;18004;48.416;10.066;2023-03-13T00:59:33;10.90;;;8.73;;
31368;SDS011;18004;48.416;10.066;2023-03-13T01:01:59;16.67;;;12.25;;
31368;SDS011;18004;48.416;10.066;2023-03-13T01:04:25;23.52;;;16.40;;
31368;SDS011;18004;48.416;10.066;2023-03-13T01:06:51;34.92;;;20.80;;
31368;SDS011;18004;48.416;10.066;2023-03-13T01:09:17;39.03;;;22.23;;
31368;SDS011;18004;48.416;10.066;2023-03-13T01:11:44;38.17;;;23.83;;
31368;SDS011;18004;48.416;10.066;2023-03-13T01:14:12;38.50;;;23.83;;
31368;SDS011;18004;48.416;10.066;2023-03-13T01:16:39;28.98;;;20.42;;
31368;SDS011;18004;48.416;10.066;2023-03-13T01:19:07;25.30;;;17.58;;
31368;SDS011;18004;48.416;10.066;2023-03-13T01:21:35;21.85;;;14.60;;
31368;SDS011;18004;48.416;10.066;2023-03-13T01:24:01;15.02;;;9.57;;
31368;SDS011;18004;48.416;10.066;2023-03-13T01:26:27;11.27;;;6.43;;
31368;SDS011;18004;48.416;10.066;2023-03-13T01:28:53;10.55;;;5.72;;
31368;SDS011;18004;48.416;10.066;2023-03-13T01:31:21;7.28;;;4.10;;
31368;SDS011;18004;48.416;10.066;2023-03-13T01:33:49;6.95;;;3.55;;
31368;SDS011;18004;48.416;10.066;2023-03-13T01:36:18;3.25;;;2.92;;
31368;SDS011;18004;48.416;10.066;2023-03-13T01:38:46;3.20;;;2.75;;
31368;SDS011;18004;48.416;10.066;2023-03-13T01:41:13;2.85;;;2.50;;
31368;SDS011;18004;48.416;10.066;2023-03-13T01:43:39;2.15;;;1.15;;
31368;SDS011;18004;48.416;10.066;2023-03-13T01:51:58;2.97;;;1.02;;
31368;SDS011;18004;48.416;10.066;2023-03-13T01:54:35;2.17;;;1.17;;
31368;SDS011;18004;48.416;10.066;2023-03-13T01:59:47;8.48;;;1.15;;
31368;SDS011;18004;48.416;10.066;2023-03-13T02:02:17;5.25;;;1.05;;
31368;SDS011;18004;48.416;10.066;2023-03-13T02:04:47;8.13;;;1.25;;
31368;SDS011;18004;48.416;10.066;2023-03-13T02:07:17;2.15;;;1.13;;
31368;SDS011;18004;48.416;10.066;2023-03-13T02:09:48;4.07;;;1.30;;
31368;SDS011;18004;48.416;10.066;2023-03-13T02:12:17;1.67;;;0.85;;
31368;SDS011;18004;48.416;10.066;2023-03-13T02:14:48;1.85;;;1.10;;
31368;SDS011;18004;48.416;10.066;2023-03-13T02:17:15;6.20;;;1.02;;
31368;SDS011;18004;48.416;10.066;2023-03-13T02:19:46;2.60;;;1.10;;
31368;SDS011;18004;48.416;10.066;2023-03-13T02:27:51;2.57;;;1.30;;
31368;SDS011;18004;48.416;10.066;2023-03-13T02:30:22;2.70;;;1.33;;
31368;SDS011;18004;48.416;10.066;2023-03-13T02:32:48;5.07;;;0.95;;
31368;SDS011;18004;48.416;10.066;2023-03-13T02:35:16;8.77;;;1.25;;
31368;SDS011;18004;48.416;10.066;2023-03-13T02:37:44;3.15;;;1.10;;
31368;SDS011;18004;48.416;10.066;2023-03-13T02:40:14;4.40;;;1.20;;
31368;SDS011;18004;48.416;10.066;2023-03-13T02:42:44;4.65;;;0.98;;
31368;SDS011;18004;48.416;10.066;2023-03-13T02:45:14;5.88;;;1.33;;
31368;SDS011;18004;48.416;10.066;2023-03-13T02:47:41;1.63;;;1.05;;
31368;SDS011;18004;48.416;10.066;2023-03-13T02:50:07;3.75;;;1.13;;
31368;SDS011;18004;48.416;10.066;2023-03-13T02:52:48;2.30;;;0.95;;
31368;SDS011;18004;48.416;10.066;2023-03-13T02:55:30;3.88;;;1.02;;
31368;SDS011;18004;48.416;10.066;2023-03-13T02:58:03;5.03;;;1.05;;
31368;SDS011;18004;48.416;10.066;2023-03-13T03:00:29;2.88;;;1.02;;
31368;SDS011;18004;48.416;10.066;2023-03-13T03:02:54;4.07;;;0.93;;
31368;SDS011;18004;48.416;10.066;2023-03-13T03:05:20;2.38;;;0.77;;
31368;SDS011;18004;48.416;10.066;2023-03-13T03:07:47;4.63;;;1.27;;
31368;SDS011;18004;48.416;10.066;2023-03-13T03:10:14;4.25;;;1.38;;
31368;SDS011;18004;48.416;10.066;2023-03-13T03:12:40;1.90;;;0.90;;
31368;SDS011;18004;48.416;10.066;2023-03-13T03:15:06;2.75;;;1.80;;
31368;SDS011;18004;48.416;10.066;2023-03-13T03:17:33;3.28;;;1.20;;
31368;SDS011;18004;48.416;10.066;2023-03-13T03:19:59;11.27;;;1.08;;
31368;SDS011;18004;48.416;10.066;2023-03-13T03:22:24;2.05;;;1.02;;
31368;SDS011;18004;48.416;10.066;2023-03-13T03:24:50;3.53;;;1.20;;
31368;SDS011;18004;48.416;10.066;2023-03-13T03:27:16;7.72;;;1.33;;
31368;SDS011;18004;48.416;10.066;2023-03-13T03:29:42;2.70;;;0.82;;
31368;SDS011;18004;48.416;10.066;2023-03-13T03:32:07;0.98;;;0.70;;
31368;SDS011;18004;48.416;10.066;2023-03-13T03:34:33;2.30;;;1.08;;
31368;SDS011;18004;48.416;10.066;2023-03-13T03:36:59;2.88;;;0.88;;
31368;SDS011;18004;48.416;10.066;2023-03-13T03:39:24;4.75;;;1.00;;
31368;SDS011;18004;48.416;10.066;2023-03-13T03:41:50;1.95;;;0.90;;
31368;SDS011;18004;48.416;10.066;2023-03-13T03:44:16;4.38;;;1.02;;
31368;SDS011;18004;48.416;10.066;2023-03-13T03:46:42;4.32;;;1.00;;
31368;SDS011;18004;48.416;10.066;2023-03-13T03:49:07;2.70;;;1.00;;
31368;SDS011;18004;48.416;10.066;2023-03-13T03:51:33;4.45;;;1.40;;
31368;SDS011;18004;48.416;10.066;2023-03-13T03:53:59;4.55;;;1.30;;
31368;SDS011;18004;48.416;10.066;2023-03-13T03:56:24;5.40;;;0.90;;
31368;SDS011;18004;48.416;10.066;2023-03-13T03:58:50;3.15;;;1.35;;
31368;SDS011;18004;48.416;10.066;2023-03-13T04:01:16;0.98;;;0.82;;
31368;SDS011;18004;48.416;10.066;2023-03-13T04:03:42;3.35;;;1.15;;
31368;SDS011;18004;48.416;10.066;2023-03-13T04:06:08;3.35;;;0.70;;
31368;SDS011;18004;48.416;10.066;2023-03-13T04:08:34;5.80;;;0.88;;
31368;SDS011;18004;48.416;10.066;2023-03-13T04:11:00;1.95;;;0.77;;
31368;SDS011;18004;48.416;10.066;2023-03-13T04:13:26;1.63;;;0.65;;
31368;SDS011;18004;48.416;10.066;2023-03-13T04:15:52;2.92;;;0.82;;
31368;SDS011;18004;48.416;10.066;2023-03-13T04:18:18;3.33;;;0.50;;
31368;SDS011;18004;48.416;10.066;2023-03-13T04:20:44;1.70;;;0.57;;
31368;SDS011;18004;48.416;10.066;2023-03-13T04:23:10;0.52;;;0.50;;
31368;SDS011;18004;48.416;10.066;2023-03-13T04:25:36;2.67;;;0.70;;
31368;SDS011;18004;48.416;10.066;2023-03-13T04:28:02;2.35;;;0.77;;
31368;SDS011;18004;48.416;10.066;2023-03-13T04:30:28;3.17;;;1.20;;
31368;SDS011;18004;48.416;10.066;2023-03-13T04:32:54;4.05;;;1.17;;
31368;SDS011;18004;48.416;10.066;2023-03-13T04:35:19;2.38;;;1.33;;
31368;SDS011;18004;48.416;10.066;2023-03-13T04:37:45;5.63;;;1.35;;
31368;SDS011;18004;48.416;10.066;2023-03-13T04:40:11;2.38;;;1.25;;
31368;SDS011;18004;48.416;10.066;2023-03-13T04:42:40;3.00;;;1.35;;
31368;SDS011;18004;48.416;10.066;2023-03-13T04:45:08;0.82;;;0.80;;
31368;SDS011;18004;48.416;10.066;2023-03-13T04:47:36;3.72;;;1.10;;
31368;SDS011;18004;48.416;10.066;2023-03-13T04:50:02;1.40;;;0.85;;
31368;SDS011;18004;48.416;10.066;2023-03-13T04:52:28;11.48;;;1.80;;
31368;SDS011;18004;48.416;10.066;2023-03-13T04:54:53;2.67;;;1.48;;
31368;SDS011;18004;48.416;10.066;2023-03-13T04:57:19;2.75;;;1.60;;
31368;SDS011;18004;48.416;10.066;2023-03-13T04:59:45;7.72;;;1.83;;
31368;SDS011;18004;48.416;10.066;2023-03-13T05:02:11;3.42;;;1.40;;
31368;SDS011;18004;48.416;10.066;2023-03-13T05:04:38;4.70;;;1.30;;
31368;SDS011;18004;48.416;10.066;2023-03-13T05:07:03;2.42;;;1.05;;
31368;SDS011;18004;48.416;10.066;2023-03-13T05:09:29;2.03;;;1.13;;
31368;SDS011;18004;48.416;10.066;2023-03-13T05:11:55;4.65;;;2.72;;
31368;SDS011;18004;48.416;10.066;2023-03-13T05:14:21;7.53;;;2.97;;
31368;SDS011;18004;48.416;10.066;2023-03-13T05:16:46;3.45;;;2.08;;
31368;SDS011;18004;48.416;10.066;2023-03-13T05:19:12;3.55;;;1.67;;
31368;SDS011;18004;48.416;10.066;2023-03-13T05:21:38;2.05;;;0.90;;
31368;SDS011;18004;48.416;10.066;2023-03-13T05:24:04;5.30;;;2.40;;
31368;SDS011;18004;48.416;10.066;2023-03-13T05:26:30;2.90;;;2.30;;
31368;SDS011;18004;48.416;10.066;2023-03-13T05:28:55;6.72;;;2.90;;
31368;SDS011;18004;48.416;10.066;2023-03-13T05:31:21;7.07;;;5.03;;
31368;SDS011;18004;48.416;10.066;2023-03-13T05:33:47;11.02;;;5.60;;
31368;SDS011;18004;48.416;10.066;2023-03-13T05:36:12;7.65;;;5.15;;
31368;SDS011;18004;48.416;10.066;2023-03-13T05:38:38;6.35;;;3.55;;
31368;SDS011;18004;48.416;10.066;2023-03-13T05:41:04;4.53;;;2.92;;
31368;SDS011;18004;48.416;10.066;2023-03-13T05:43:30;3.47;;;2.28;;
31368;SDS011;18004;48.416;10.066;2023-03-13T05:45:55;2.17;;;1.17;;
31368;SDS011;18004;48.416;10.066;2023-03-13T05:48:21;1.73;;;0.98;;
31368;SDS011;18004;48.416;10.066;2023-03-13T05:50:47;2.17;;;0.77;;
31368;SDS011;18004;48.416;10.066;2023-03-13T05:53:12;3.03;;;1.77;;
31368;SDS011;18004;48.416;10.066;2023-03-13T05:55:38;3.22;;;1.30;;
31368;SDS011;18004;48.416;10.066;2023-03-13T05:58:04;3.65;;;2.63;;
31368;SDS011;18004;48.416;10.066;2023-03-13T06:00:30;3.47;;;3.00;;
31368;SDS011;18004;48.416;10.066;2023-03-13T06:02:55;4.72;;;2.90;;
31368;SDS011;18004;48.416;10.066;2023-03-13T06:05:21;4.20;;;2.72;;
31368;SDS011;18004;48.416;10.066;2023-03-13T06:07:48;6.70;;;2.83;;
31368;SDS011;18004;48.416;10.066;2023-03-13T06:10:14;1.38;;;1.15;;
31368;SDS011;18004;48.416;10.066;2023-03-13T06:12:40;1.58;;;0.60;;
31368;SDS011;18004;48.416;10.066;2023-03-13T06:15:06;1.05;;;0.70;;
31368;SDS011;18004;48.416;10.066;2023-03-13T06:17:34;1.92;;;0.57;;
31368;SDS011;18004;48.416;10.066;2023-03-13T06:20:00;4.22;;;0.75;;
31368;SDS011;18004;48.416;10.066;2023-03-13T06:22:27;0.93;;;0.60;;
31368;SDS011;18004;48.416;10.066;2023-03-13T06:24:52;0.85;;;0.70;;
31368;SDS011;18004;48.416;10.066;2023-03-13T06:27:18;9.48;;;4.68;;
31368;SDS011;18004;48.416;10.066;2023-03-13T06:29:44;7.78;;;6.82;;
31368;SDS011;18004;48.416;10.066;2023-03-13T06:32:10;2.80;;;2.00;;
31368;SDS011;18004;48.416;10.066;2023-03-13T06:34:35;2.50;;;0.85;;
31368;SDS011;18004;48.416;10.066;2023-03-13T06:37:02;3.83;;;1.10;;
31368;SDS011;18004;48.416;10.066;2023-03-13T06:39:28;0.57;;;0.50;;
31368;SDS011;18004;48.416;10.066;2023-03-13T06:41:53;1.40;;;0.73;;
31368;SDS011;18004;48.416;10.066;2023-03-13T06:44:19;2.45;;;1.42;;
31368;SDS011;18004;48.416;10.066;2023-03-13T06:46:45;4.95;;;3.92;;
31368;SDS011;18004;48.416;10.066;2023-03-13T06:49:11;9.65;;;7.65;;
31368;SDS011;18004;48.416;10.066;2023-03-13T06:51:36;12.85;;;8.82;;
31368;SDS011;18004;48.416;10.066;2023-03-13T06:54:02;8.63;;;4.43;;
31368;SDS011;18004;48.416;10.066;2023-03-13T06:56:28;7.47;;;3.55;;
31368;SDS011;18004;48.416;10.066;2023-03-13T06:58:54;8.85;;;4.53;;
31368;SDS011;18004;48.416;10.066;2023-03-13T07:01:19;1.98;;;1.77;;
31368;SDS011;18004;48.416;10.066;2023-03-13T07:03:46;1.48;;;1.30;;
31368;SDS011;18004;48.416;10.066;2023-03-13T07:06:13;4.63;;;1.60;;
31368;SDS011;18004;48.416;10.066;2023-03-13T07:08:39;1.35;;;0.77;;
31368;SDS011;18004;48.416;10.066;2023-03-13T07:11:07;1.90;;;0.98;;
31368;SDS011;18004;48.416;10.066;2023-03-13T07:13:33;8.73;;;5.90;;
31368;SDS011;18004;48.416;10.066;2023-03-13T07:16:03;16.02;;;12.68;;
31368;SDS011;18004;48.416;10.066;2023-03-13T07:18:34;12.05;;;10.80;;
31368;SDS011;18004;48.416;10.066;2023-03-13T07:21:01;10.02;;;8.38;;
31368;SDS011;18004;48.416;10.066;2023-03-13T07:23:31;10.40;;;6.30;;
31368;SDS011;18004;48.416;10.066;2023-03-13T07:26:03;7.53;;;5.53;;
31368;SDS011;18004;48.416;10.066;2023-03-13T07:28:34;7.45;;;5.00;;
31368;SDS011;18004;48.416;10.066;2023-03-13T07:31:07;2.83;;;2.58;;
31368;SDS011;18004;48.416;10.066;2023-03-13T07:33:40;3.00;;;2.58;;
31368;SDS011;18004;48.416;10.066;2023-03-13T07:36:07;2.25;;;1.70;;
31368;SDS011;18004;48.416;10.066;2023-03-13T07:38:33;5.75;;;2.10;;
31368;SDS011;18004;48.416;10.066;2023-03-13T07:40:59;3.45;;;2.60;;
31368;SDS011;18004;48.416;10.066;2023-03-13T07:43:25;0.75;;;0.70;;
31368;SDS011;18004;48.416;10.066;2023-03-13T07:48:24;1.67;;;0.75;;
31368;SDS011;18004;48.416;10.066;2023-03-13T07:50:53;0.65;;;0.60;;
31368;SDS011;18004;48.416;10.066;2023-03-13T07:53:19;1.63;;;0.60;;
31368;SDS011;18004;48.416;10.066;2023-03-13T07:55:52;2.42;;;0.60;;
31368;SDS011;18004;48.416;10.066;2023-03-13T07:58:26;1.25;;;0.80;;
31368;SDS011;18004;48.416;10.066;2023-03-13T08:00:54;7.63;;;1.23;;
31368;SDS011;18004;48.416;10.066;2023-03-13T08:03:20;0.90;;;0.85;;
31368;SDS011;18004;48.416;10.066;2023-03-13T08:05:46;3.25;;;1.98;;
31368;SDS011;18004;48.416;10.066;2023-03-13T08:08:12;4.63;;;2.78;;
31368;SDS011;18004;48.416;10.066;2023-03-13T08:10:37;3.28;;;2.00;;
31368;SDS011;18004;48.416;10.066;2023-03-13T08:13:03;4.18;;;1.30;;
31368;SDS011;18004;48.416;10.066;2023-03-13T08:15:29;3.47;;;3.03;;
31368;SDS011;18004;48.416;10.066;2023-03-13T08:17:55;2.67;;;1.25;;
31368;SDS011;18004;48.416;10.066;2023-03-13T08:20:21;2.13;;;0.75;;
31368;SDS011;18004;48.416;10.066;2023-03-13T08:22:47;1.77;;;0.90;;
31368;SDS011;18004;48.416;10.066;2023-03-13T08:25:16;2.50;;;1.40;;
31368;SDS011;18004;48.416;10.066;2023-03-13T08:27:42;0.55;;;0.50;;
31368;SDS011;18004;48.416;10.066;2023-03-13T08:30:08;1.25;;;0.50;;
31368;SDS011;18004;48.416;10.066;2023-03-13T08:32:34;0.88;;;0.55;;
31368;SDS011;18004;48.416;10.066;2023-03-13T08:35:00;0.63;;;0.50;;
31368;SDS011;18004;48.416;10.066;2023-03-13T08:37:27;0.28;;;0.28;;
31368;SDS011;18004;48.416;10.066;2023-03-13T08:39:53;1.50;;;0.50;;
31368;SDS011;18004;48.416;10.066;2023-03-13T08:42:21;1.77;;;0.52;;
31368;SDS011;18004;48.416;10.066;2023-03-13T08:44:47;1.52;;;1.02;;
31368;SDS011;18004;48.416;10.066;2023-03-13T08:47:13;2.30;;;1.88;;
31368;SDS011;18004;48.416;10.066;2023-03-13T08:49:39;2.60;;;2.35;;
31368;SDS011;18004;48.416;10.066;2023-03-13T08:52:05;1.15;;;0.90;;
31368;SDS011;18004;48.416;10.066;2023-03-13T08:54:32;4.18;;;1.25;;
31368;SDS011;18004;48.416;10.066;2023-03-13T08:56:58;1.00;;;0.90;;
31368;SDS011;18004;48.416;10.066;2023-03-13T08:59:24;2.13;;;0.50;;
31368;SDS011;18004;48.416;10.066;2023-03-13T09:01:50;1.08;;;0.50;;
31368;SDS011;18004;48.416;10.066;2023-03-13T09:04:16;1.48;;;0.50;;
31368;SDS011;18004;48.416;10.066;2023-03-13T09:06:43;3.22;;;0.77;;
31368;SDS011;18004;48.416;10.066;2023-03-13T09:09:09;1.75;;;0.38;;
31368;SDS011;18004;48.416;10.066;2023-03-13T09:11:36;1.63;;;0.40;;
31368;SDS011;18004;48.416;10.066;2023-03-13T09:14:03;1.10;;;0.45;;
31368;SDS011;18004;48.416;10.066;2023-03-13T09:16:30;0.63;;;0.45;;
31368;SDS011;18004;48.416;10.066;2023-03-13T09:18:58;0.75;;;0.60;;
31368;SDS011;18004;48.416;10.066;2023-03-13T09:21:28;2.88;;;0.60;;
31368;SDS011;18004;48.416;10.066;2023-03-13T09:23:55;2.15;;;0.60;;
31368;SDS011;18004;48.416;10.066;2023-03-13T09:26:22;0.25;;;0.25;;
31368;SDS011;18004;48.416;10.066;2023-03-13T09:28:48;1.42;;;0.60;;
31368;SDS011;18004;48.416;10.066;2023-03-13T09:31:16;1.10;;;0.43;;
31368;SDS011;18004;48.416;10.066;2023-03-13T09:33:48;1.42;;;0.50;;
31368;SDS011;18004;48.416;10.066;2023-03-13T09:36:14;1.02;;;0.45;;
31368;SDS011;18004;48.416;10.066;2023-03-13T09:38:41;0.60;;;0.40;;
31368;SDS011;18004;48.416;10.066;2023-03-13T09:43:44;1.30;;;0.70;;
31368;SDS011;18004;48.416;10.066;2023-03-13T09:46:21;0.68;;;0.50;;
31368;SDS011;18004;48.416;10.066;2023-03-13T09:48:57;1.95;;;0.80;;
31368;SDS011;18004;48.416;10.066;2023-03-13T09:51:32;0.52;;;0.50;;
31368;SDS011;18004;48.416;10.066;2023-03-13T09:54:21;0.50;;;0.30;;
31368;SDS011;18004;48.416;10.066;2023-03-13T09:56:55;1.63;;;0.47;;
31368;SDS011;18004;48.416;10.066;2023-03-13T09:59:36;0.55;;;0.43;;
31368;SDS011;18004;48.416;10.066;2023-03-13T10:02:19;0.20;;;0.20;;
31368;SDS011;18004;48.416;10.066;2023-03-13T10:05:43;1.15;;;0.30;;
31368;SDS011;18004;48.416;10.066;2023-03-13T10:07:50;1.73;;;0.52;;
31368;SDS011;18004;48.416;10.066;2023-03-13T10:13:14;0.43;;;0.30;;
31368;SDS011;18004;48.416;10.066;2023-03-13T10:16:13;0.70;;;0.35;;
31368;SDS011;18004;48.416;10.066;2023-03-13T10:18:46;0.30;;;0.30;;
31368;SDS011;18004;48.416;10.066;2023-03-13T10:21:20;0.77;;;0.52;;
31368;SDS011;18004;48.416;10.066;2023-03-13T10:26:40;0.50;;;0.40;;
31368;SDS011;18004;48.416;10.066;2023-03-13T10:29:25;0.55;;;0.38;;
31368;SDS011;18004;48.416;10.066;2023-03-13T10:31:59;0.40;;;0.40;;
31368;SDS011;18004;48.416;10.066;2023-03-13T10:37:29;1.85;;;0.57;;
31368;SDS011;18004;48.416;10.066;2023-03-13T10:42:50;2.63;;;0.90;;
31368;SDS011;18004;48.416;10.066;2023-03-13T10:45:19;1.60;;;0.40;;
31368;SDS011;18004;48.416;10.066;2023-03-13T10:47:53;1.25;;;0.43;;
31368;SDS011;18004;48.416;10.066;2023-03-13T10:50:21;0.32;;;0.30;;
31368;SDS011;18004;48.416;10.066;2023-03-13T10:52:50;0.77;;;0.40;;
31368;SDS011;18004;48.416;10.066;2023-03-13T10:55:25;2.08;;;0.40;;
31368;SDS011;18004;48.416;10.066;2023-03-13T11:02:59;0.77;;;0.43;;
31368;SDS011;18004;48.416;10.066;2023-03-13T11:05:30;0.82;;;0.50;;
31368;SDS011;18004;48.416;10.066;2023-03-13T11:07:58;1.45;;;0.47;;
31368;SDS011;18004;48.416;10.066;2023-03-13T11:13:27;3.60;;;0.50;;
31368;SDS011;18004;48.416;10.066;2023-03-13T11:16:15;0.38;;;0.38;;
31368;SDS011;18004;48.416;10.066;2023-03-13T11:30:24;1.88;;;0.32;;
31368;SDS011;18004;48.416;10.066;2023-03-13T11:33:03;0.63;;;0.30;;
31368;SDS011;18004;48.416;10.066;2023-03-13T11:35:58;6.85;;;0.82;;
31368;SDS011;18004;48.416;10.066;2023-03-13T11:39:07;2.25;;;1.17;;
31368;SDS011;18004;48.416;10.066;2023-03-13T11:41:44;0.52;;;0.40;;
31368;SDS011;18004;48.416;10.066;2023-03-13T11:52:40;1.00;;;0.40;;
31368;SDS011;18004;48.416;10.066;2023-03-13T11:55:13;0.30;;;0.30;;
31368;SDS011;18004;48.416;10.066;2023-03-13T11:58:04;0.28;;;0.28;;
31368;SDS011;18004;48.416;10.066;2023-03-13T12:00:50;0.95;;;0.57;;
31368;SDS011;18004;48.416;10.066;2023-03-13T12:36:00;0.30;;;0.25;;
31368;SDS011;18004;48.416;10.066;2023-03-13T12:41:53;2.53;;;0.50;;
31368;SDS011;18004;48.416;10.066;2023-03-13T13:00:30;0.32;;;0.32;;
31368;SDS011;18004;48.416;10.066;2023-03-13T13:10:00;1.27;;;0.45;;
31368;SDS011;18004;48.416;10.066;2023-03-13T13:16:17;0.57;;;0.38;;
31368;SDS011;18004;48.416;10.066;2023-03-13T13:44:29;1.73;;;0.50;;
31368;SDS011;18004;48.416;10.066;2023-03-13T13:46:56;3.03;;;0.40;;
31368;SDS011;18004;48.416;10.066;2023-03-13T14:13:40;1.00;;;0.30;;
31368;SDS011;18004;48.416;10.066;2023-03-13T14:25:55;0.43;;;0.30;;
31368;SDS011;18004;48.416;10.066;2023-03-13T14:33:03;0.30;;;0.30;;
31368;SDS011;18004;48.416;10.066;2023-03-13T14:35:52;0.20;;;0.10;;
31368;SDS011;18004;48.416;10.066;2023-03-13T14:41:41;1.58;;;0.50;;
31368;SDS011;18004;48.416;10.066;2023-03-13T14:59:16;0.20;;;0.20;;
31368;SDS011;18004;48.416;10.066;2023-03-13T15:12:01;3.25;;;0.30;;
31368;SDS011;18004;48.416;10.066;2023-03-13T15:15:28;2.95;;;0.30;;
31368;SDS011;18004;48.416;10.066;2023-03-13T15:19:09;3.25;;;0.38;;
31368;SDS011;18004;48.416;10.066;2023-03-13T15:21:37;0.10;;;0.10;;
31368;SDS011;18004;48.416;10.066;2023-03-13T15:34:24;0.60;;;0.10;;
31368;SDS011;18004;48.416;10.066;2023-03-13T15:37:31;1.35;;;0.20;;
31368;SDS011;18004;48.416;10.066;2023-03-13T15:49:50;0.03;;;0.03;;
31368;SDS011;18004;48.416;10.066;2023-03-13T15:53:42;0.17;;;0.13;;
31368;SDS011;18004;48.416;10.066;2023-03-13T16:15:39;0.22;;;0.20;;
31368;SDS011;18004;48.416;10.066;2023-03-13T16:18:30;0.28;;;0.25;;
31368;SDS011;18004;48.416;10.066;2023-03-13T16:20:59;1.15;;;0.30;;
31368;SDS011;18004;48.416;10.066;2023-03-13T16:23:25;7.68;;;0.40;;
31368;SDS011;18004;48.416;10.066;2023-03-13T16:25:50;0.20;;;0.20;;
31368;SDS011;18004;48.416;10.066;2023-03-13T16:28:25;4.90;;;0.30;;
31368;SDS011;18004;48.416;10.066;2023-03-13T16:30:58;1.27;;;0.40;;
31368;SDS011;18004;48.416;10.066;2023-03-13T16:37:18;0.90;;;0.20;;
31368;SDS011;18004;48.416;10.066;2023-03-13T16:40:26;1.17;;;0.30;;
31368;SDS011;18004;48.416;10.066;2023-03-13T16:50:35;0.10;;;0.10;;
31368;SDS011;18004;48.416;10.066;2023-03-13T16:53:02;1.02;;;0.35;;
31368;SDS011;18004;48.416;10.066;2023-03-13T16:55:28;0.20;;;0.20;;
31368;SDS011;18004;48.416;10.066;2023-03-13T17:00:26;1.63;;;0.35;;
31368;SDS011;18004;48.416;10.066;2023-03-13T17:02:53;1.00;;;0.40;;
31368;SDS011;18004;48.416;10.066;2023-03-13T17:05:22;4.47;;;0.40;;
31368;SDS011;18004;48.416;10.066;2023-03-13T17:07:49;1.40;;;0.50;;
31368;SDS011;18004;48.416;10.066;2023-03-13T17:10:20;0.30;;;0.30;;
31368;SDS011;18004;48.416;10.066;2023-03-13T17:12:56;0.87;;;0.63;;
31368;SDS011;18004;48.416;10.066;2023-03-13T17:15:23;1.88;;;1.02;;
31368;SDS011;18004;48.416;10.066;2023-03-13T17:17:50;0.80;;;0.52;;
31368;SDS011;18004;48.416;10.066;2023-03-13T17:20:34;2.50;;;0.50;;
31368;SDS011;18004;48.416;10.066;2023-03-13T17:23:46;0.65;;;0.40;;
31368;SDS011;18004;48.416;10.066;2023-03-13T17:47:24;1.40;;;0.30;;
31368;SDS011;18004;48.416;10.066;2023-03-13T17:50:17;1.73;;;0.70;;
31368;SDS011;18004;48.416;10.066;2023-03-13T17:53:14;0.75;;;0.32;;
31368;SDS011;18004;48.416;10.066;2023-03-13T17:55:54;0.93;;;0.50;;
31368;SDS011;18004;48.416;10.066;2023-03-13T18:00:57;0.40;;;0.40;;
31368;SDS011;18004;48.416;10.066;2023-03-13T18:06:49;1.13;;;0.45;;
31368;SDS011;18004;48.416;10.066;2023-03-13T18:09:19;0.60;;;0.30;;
31368;SDS011;18004;48.416;10.066;2023-03-13T18:11:57;3.92;;;1.10;;
31368;SDS011;18004;48.416;10.066;2023-03-13T18:14:23;3.65;;;0.93;;
31368;SDS011;18004;48.416;10.066;2023-03-13T18:16:48;2.55;;;0.80;;
31368;SDS011;18004;48.416;10.066;2023-03-13T18:19:17;4.75;;;1.85;;
31368;SDS011;18004;48.416;10.066;2023-03-13T18:24:14;2.13;;;1.20;;
31368;SDS011;18004;48.416;10.066;2023-03-13T18:26:42;1.85;;;0.75;;
31368;SDS011;18004;48.416;10.066;2023-03-13T18:29:15;2.25;;;0.77;;
31368;SDS011;18004;48.416;10.066;2023-03-13T18:31:59;2.72;;;0.82;;
31368;SDS011;18004;48.416;10.066;2023-03-13T18:34:25;0.82;;;0.57;;
31368;SDS011;18004;48.416;10.066;2023-03-13T18:36:51;1.83;;;0.85;;
31368;SDS011;18004;48.416;10.066;2023-03-13T18:39:18;6.20;;;0.50;;
31368;SDS011;18004;48.416;10.066;2023-03-13T18:41:48;1.85;;;0.57;;
31368;SDS011;18004;48.416;10.066;2023-03-13T18:44:16;1.35;;;0.70;;
31368;SDS011;18004;48.416;10.066;2023-03-13T18:46:45;0.70;;;0.60;;
31368;SDS011;18004;48.416;10.066;2023-03-13T18:49:12;2.08;;;0.93;;
31368;SDS011;18004;48.416;10.066;2023-03-13T18:51:48;7.28;;;2.22;;
31368;SDS011;18004;48.416;10.066;2023-03-13T18:54:15;2.97;;;1.50;;
31368;SDS011;18004;48.416;10.066;2023-03-13T18:56:45;3.55;;;1.67;;
31368;SDS011;18004;48.416;10.066;2023-03-13T18:59:12;4.85;;;2.00;;
31368;SDS011;18004;48.416;10.066;2023-03-13T19:01:41;3.88;;;2.03;;
31368;SDS011;18004;48.416;10.066;2023-03-13T19:04:07;4.25;;;2.00;;
31368;SDS011;18004;48.416;10.066;2023-03-13T19:06:34;6.22;;;1.50;;
31368;SDS011;18004;48.416;10.066;2023-03-13T19:09:01;3.75;;;1.95;;
31368;SDS011;18004;48.416;10.066;2023-03-13T19:11:31;2.97;;;1.38;;
31368;SDS011;18004;48.416;10.066;2023-03-13T19:13:57;2.38;;;1.10;;
31368;SDS011;18004;48.416;10.066;2023-03-13T19:16:30;2.72;;;1.10;;
31368;SDS011;18004;48.416;10.066;2023-03-13T19:19:18;2.45;;;1.15;;
31368;SDS011;18004;48.416;10.066;2023-03-13T19:21:45;5.90;;;1.05;;
31368;SDS011;18004;48.416;10.066;2023-03-13T19:24:11;0.90;;;0.77;;
31368;SDS011;18004;48.416;10.066;2023-03-13T19:29:08;1.20;;;0.82;;
31368;SDS011;18004;48.416;10.066;2023-03-13T19:31:39;0.80;;;0.55;;
31368;SDS011;18004;48.416;10.066;2023-03-13T19:34:05;1.27;;;0.73;;
31368;SDS011;18004;48.416;10.066;2023-03-13T19:36:32;1.83;;;0.70;;
31368;SDS011;18004;48.416;10.066;2023-03-13T19:39:04;3.45;;;1.55;;
31368;SDS011;18004;48.416;10.066;2023-03-13T19:41:42;4.68;;;1.95;;
31368;SDS011;18004;48.416;10.066;2023-03-13T19:44:08;2.67;;;1.52;;
31368;SDS011;18004;48.416;10.066;2023-03-13T19:46:34;2.95;;;2.03;;
31368;SDS011;18004;48.416;10.066;2023-03-13T19:49:03;6.00;;;1.80;;